TFV009 ESSA-LDDU
Flight info
| Callsign | TFV009 |
|---|---|
| Flight time | N/A |
| Altitude | 38000 |
| Route | NOSLI N850 ABAMA DCT NEFYN/N0461F370 DCT RUMAR DCT DIMEX DCT MIKOV DCT KOPRY DCT NETKO |
| Aircraft | B738/M-SDE2E3FGHIRWXY/LB1 |
Departure
| Time | N/A |
|---|---|
| Airport | Stockholm-Arlanda Airport (ESSA) |
Arrival
| Time | 2026-05-07 14:16 |
|---|---|
| Airport | Dubrovnik Ruđer Bošković Airport (LDDU) |
| Time | Latitude | Longitude | Altitude | Speed | Heading |
|---|---|---|---|---|---|
| 2026-05-07 13:37 | 45.90843 | 17.09677 | 35008 ft | 422 kts | 179° |
| 2026-05-07 13:37 | 45.85009 | 17.10591 | 35011 ft | 421 kts | 179° |
| 2026-05-07 13:38 | 45.79177 | 17.11502 | 35020 ft | 421 kts | 179° |
| 2026-05-07 13:38 | 45.73367 | 17.12406 | 35014 ft | 420 kts | 179° |
| 2026-05-07 13:39 | 45.67561 | 17.13309 | 35023 ft | 420 kts | 179° |
| 2026-05-07 13:39 | 45.61748 | 17.14211 | 35029 ft | 420 kts | 179° |
| 2026-05-07 13:40 | 45.55922 | 17.15113 | 35023 ft | 422 kts | 179° |
| 2026-05-07 13:40 | 45.50076 | 17.16016 | 35034 ft | 423 kts | 179° |
| 2026-05-07 13:41 | 45.44214 | 17.16919 | 35043 ft | 425 kts | 179° |
| 2026-05-07 13:41 | 45.38325 | 17.17826 | 35032 ft | 426 kts | 179° |
| 2026-05-07 13:42 | 45.32424 | 17.18732 | 35024 ft | 427 kts | 179° |
| 2026-05-07 13:42 | 45.26522 | 17.19637 | 35036 ft | 426 kts | 179° |
| 2026-05-07 13:43 | 45.20619 | 17.20540 | 35034 ft | 427 kts | 179° |
| 2026-05-07 13:43 | 45.14698 | 17.21442 | 35023 ft | 429 kts | 179° |
| 2026-05-07 13:44 | 45.08798 | 17.22341 | 35031 ft | 430 kts | 179° |
| 2026-05-07 13:44 | 45.02846 | 17.23245 | 35028 ft | 431 kts | 178° |
| 2026-05-07 13:45 | 44.96873 | 17.24151 | 35026 ft | 432 kts | 178° |
| 2026-05-07 13:45 | 44.90882 | 17.25057 | 35019 ft | 433 kts | 178° |
| 2026-05-07 13:46 | 44.84894 | 17.25963 | 35015 ft | 432 kts | 178° |
| 2026-05-07 13:46 | 44.78924 | 17.26863 | 35022 ft | 431 kts | 179° |
| 2026-05-07 13:47 | 44.72954 | 17.27761 | 35037 ft | 431 kts | 179° |
| 2026-05-07 13:47 | 44.66985 | 17.28656 | 35030 ft | 432 kts | 179° |
| 2026-05-07 13:48 | 44.61002 | 17.29551 | 35026 ft | 433 kts | 178° |
| 2026-05-07 13:48 | 44.54993 | 17.30449 | 35052 ft | 435 kts | 178° |
| 2026-05-07 13:49 | 44.48960 | 17.31348 | 35036 ft | 436 kts | 178° |
| 2026-05-07 13:49 | 44.42915 | 17.32248 | 35045 ft | 438 kts | 178° |
| 2026-05-07 13:50 | 44.36996 | 17.33127 | 35055 ft | 440 kts | 178° |
| 2026-05-07 13:50 | 44.30901 | 17.34030 | 35053 ft | 441 kts | 178° |
| 2026-05-07 13:51 | 44.24788 | 17.34935 | 35045 ft | 441 kts | 178° |
| 2026-05-07 13:51 | 44.18681 | 17.35834 | 35048 ft | 441 kts | 179° |
| 2026-05-07 13:52 | 44.12614 | 17.36736 | 35062 ft | 441 kts | 178° |
| 2026-05-07 13:52 | 44.06505 | 17.37630 | 35076 ft | 441 kts | 179° |
| 2026-05-07 13:53 | 44.00405 | 17.38524 | 35060 ft | 441 kts | 179° |
| 2026-05-07 13:53 | 43.94312 | 17.39416 | 35082 ft | 440 kts | 179° |
| 2026-05-07 13:54 | 43.88220 | 17.40306 | 35085 ft | 440 kts | 179° |
| 2026-05-07 13:54 | 43.82122 | 17.41194 | 35086 ft | 441 kts | 180° |
| 2026-05-07 13:55 | 43.76017 | 17.42083 | 35094 ft | 441 kts | 180° |
| 2026-05-07 13:55 | 43.69911 | 17.42968 | 35074 ft | 442 kts | 180° |
| 2026-05-07 13:56 | 43.63796 | 17.43855 | 35074 ft | 443 kts | 180° |
| 2026-05-07 13:56 | 43.57647 | 17.44743 | 35089 ft | 445 kts | 180° |
| 2026-05-07 13:57 | 43.51480 | 17.45632 | 35109 ft | 447 kts | 180° |
| 2026-05-07 13:57 | 43.48374 | 17.46079 | 34845 ft | 453 kts | 180° |
| 2026-05-07 13:57 | 43.45223 | 17.46529 | 34319 ft | 454 kts | 180° |
| 2026-05-07 13:57 | 43.42096 | 17.46982 | 33603 ft | 453 kts | 180° |
| 2026-05-07 13:58 | 43.38967 | 17.47433 | 32907 ft | 451 kts | 180° |
| 2026-05-07 13:58 | 43.35845 | 17.47882 | 32188 ft | 451 kts | 179° |
| 2026-05-07 13:58 | 43.32724 | 17.48329 | 31506 ft | 451 kts | 179° |
| 2026-05-07 13:58 | 43.29606 | 17.48777 | 30845 ft | 450 kts | 179° |
| 2026-05-07 13:59 | 43.26490 | 17.49222 | 30103 ft | 451 kts | 179° |
| 2026-05-07 13:59 | 43.23369 | 17.49667 | 29227 ft | 451 kts | 179° |
| 2026-05-07 13:59 | 43.20248 | 17.50112 | 28412 ft | 451 kts | 179° |
| 2026-05-07 13:59 | 43.17139 | 17.50557 | 27807 ft | 446 kts | 179° |
| 2026-05-07 14:00 | 43.14068 | 17.50998 | 27204 ft | 441 kts | 179° |
| 2026-05-07 14:00 | 43.11035 | 17.51432 | 26655 ft | 435 kts | 179° |
| 2026-05-07 14:00 | 43.08040 | 17.51857 | 26077 ft | 431 kts | 179° |
| 2026-05-07 14:00 | 43.05070 | 17.52278 | 25526 ft | 427 kts | 179° |
| 2026-05-07 14:01 | 43.02132 | 17.52693 | 24970 ft | 423 kts | 179° |
| 2026-05-07 14:01 | 42.99221 | 17.53105 | 24448 ft | 419 kts | 179° |
| 2026-05-07 14:01 | 42.96336 | 17.53514 | 23912 ft | 415 kts | 179° |
| 2026-05-07 14:01 | 42.93474 | 17.53808 | 23312 ft | 409 kts | 185° |
| 2026-05-07 14:02 | 42.90693 | 17.53301 | 22728 ft | 399 kts | 198° |
| 2026-05-07 14:02 | 42.88089 | 17.52126 | 22001 ft | 394 kts | 206° |
| 2026-05-07 14:02 | 42.85695 | 17.50304 | 21067 ft | 396 kts | 215° |
| 2026-05-07 14:02 | 42.83389 | 17.48248 | 20388 ft | 395 kts | 215° |
| 2026-05-07 14:03 | 42.81093 | 17.46227 | 19837 ft | 391 kts | 214° |
| 2026-05-07 14:03 | 42.78810 | 17.44249 | 19288 ft | 387 kts | 214° |
| 2026-05-07 14:03 | 42.76540 | 17.42297 | 18700 ft | 385 kts | 214° |
| 2026-05-07 14:03 | 42.74274 | 17.40359 | 18093 ft | 383 kts | 213° |
| 2026-05-07 14:04 | 42.71846 | 17.38888 | 17491 ft | 385 kts | 196° |
| 2026-05-07 14:04 | 42.69182 | 17.38599 | 16971 ft | 387 kts | 179° |
| 2026-05-07 14:04 | 42.66549 | 17.39383 | 16379 ft | 392 kts | 162° |
| 2026-05-07 14:04 | 42.64155 | 17.41200 | 15721 ft | 398 kts | 146° |
| 2026-05-07 14:05 | 42.62794 | 17.42884 | 15327 ft | 402 kts | 134° |
| 2026-05-07 14:05 | 42.60804 | 17.47195 | 14649 ft | 403 kts | 120° |
| 2026-05-07 14:05 | 42.59955 | 17.49424 | 14328 ft | 400 kts | 120° |
| 2026-05-07 14:05 | 42.58698 | 17.52783 | 13838 ft | 397 kts | 120° |
| 2026-05-07 14:06 | 42.57460 | 17.56071 | 13641 ft | 384 kts | 120° |
| 2026-05-07 14:06 | 42.56255 | 17.59230 | 13537 ft | 370 kts | 120° |
| 2026-05-07 14:06 | 42.55080 | 17.62270 | 13448 ft | 357 kts | 121° |
| 2026-05-07 14:06 | 42.53939 | 17.65203 | 13359 ft | 345 kts | 121° |
| 2026-05-07 14:07 | 42.52833 | 17.68032 | 13278 ft | 334 kts | 121° |
| 2026-05-07 14:07 | 42.51765 | 17.70765 | 13189 ft | 323 kts | 121° |
| 2026-05-07 14:07 | 42.50729 | 17.73412 | 13106 ft | 312 kts | 121° |
| 2026-05-07 14:07 | 42.49725 | 17.75976 | 12936 ft | 306 kts | 121° |
| 2026-05-07 14:08 | 42.48731 | 17.78511 | 12628 ft | 305 kts | 121° |
| 2026-05-07 14:08 | 42.47823 | 17.81100 | 12337 ft | 306 kts | 108° |
| 2026-05-07 14:08 | 42.47702 | 17.83969 | 12019 ft | 309 kts | 79° |
| 2026-05-07 14:08 | 42.48525 | 17.86624 | 11709 ft | 307 kts | 52° |
| 2026-05-07 14:09 | 42.50061 | 17.88583 | 11429 ft | 303 kts | 29° |
| 2026-05-07 14:09 | 42.51901 | 17.89936 | 11139 ft | 300 kts | 25° |
| 2026-05-07 14:09 | 42.53729 | 17.91213 | 10862 ft | 299 kts | 25° |
| 2026-05-07 14:09 | 42.55622 | 17.92350 | 10543 ft | 296 kts | 9° |
| 2026-05-07 14:10 | 42.57637 | 17.92414 | 10306 ft | 287 kts | 347° |
| 2026-05-07 14:10 | 42.59559 | 17.91761 | 9986 ft | 285 kts | 339° |
| 2026-05-07 14:10 | 42.61449 | 17.90944 | 9671 ft | 285 kts | 339° |
| 2026-05-07 14:10 | 42.63352 | 17.90235 | 9375 ft | 286 kts | 352° |
| 2026-05-07 14:11 | 42.65314 | 17.90676 | 9012 ft | 291 kts | 25° |
| 2026-05-07 14:11 | 42.66881 | 17.92384 | 8692 ft | 291 kts | 55° |
| 2026-05-07 14:11 | 42.67687 | 17.94854 | 8236 ft | 288 kts | 83° |
| 2026-05-07 14:11 | 42.67526 | 17.97524 | 7506 ft | 282 kts | 110° |
| 2026-05-07 14:12 | 42.66849 | 17.99989 | 6797 ft | 276 kts | 119° |
| 2026-05-07 14:12 | 42.65939 | 18.02246 | 6075 ft | 270 kts | 123° |
| 2026-05-07 14:12 | 42.65030 | 18.04440 | 5390 ft | 262 kts | 123° |
| 2026-05-07 14:12 | 42.64206 | 18.06522 | 4858 ft | 236 kts | 123° |
| 2026-05-07 14:13 | 42.63466 | 18.08386 | 4287 ft | 214 kts | 123° |
| 2026-05-07 14:13 | 42.62781 | 18.10102 | 3699 ft | 200 kts | 122° |
| 2026-05-07 14:13 | 42.62137 | 18.11715 | 3114 ft | 190 kts | 122° |
| 2026-05-07 14:13 | 42.61523 | 18.13257 | 2521 ft | 181 kts | 121° |
| 2026-05-07 14:14 | 42.60956 | 18.14683 | 2213 ft | 161 kts | 120° |
| 2026-05-07 14:14 | 42.60457 | 18.15940 | 2010 ft | 141 kts | 122° |
| 2026-05-07 14:14 | 42.60016 | 18.17049 | 1847 ft | 132 kts | 121° |
| 2026-05-07 14:14 | 42.59580 | 18.18143 | 1682 ft | 132 kts | 122° |
| 2026-05-07 14:15 | 42.59145 | 18.19236 | 1495 ft | 130 kts | 121° |
| 2026-05-07 14:15 | 42.58716 | 18.20314 | 1332 ft | 131 kts | 120° |
| 2026-05-07 14:15 | 42.58283 | 18.21406 | 1155 ft | 132 kts | 121° |
| 2026-05-07 14:15 | 42.57852 | 18.22493 | 990 ft | 128 kts | 119° |
| 2026-05-07 14:16 | 42.57432 | 18.23547 | 730 ft | 128 kts | 116° |
| 2026-05-07 14:16 | 42.57033 | 18.24629 | 583 ft | 122 kts | 117° |
| 2026-05-07 14:16 | 42.56642 | 18.25492 | 534 ft | 92 kts | 111° |
| 2026-05-07 14:16 | 42.56443 | 18.26063 | 533 ft | 47 kts | 125° |
| 2026-05-07 14:17 | 42.56221 | 18.26240 | 533 ft | 26 kts | 154° |
| 2026-05-07 14:17 | 42.56145 | 18.26215 | 533 ft | 0 kts | 211° |